Pagrindinis puslapis
METAR-TAF:

METAR-TAF

Oro uostai :

Narathivatas, Tailandas

platuma: 6-31-12N, ilguma: 101-44-36E, Aukštis: 5 m

Dabartinis oras

Ataskaita buvo paskelbta 30 minutes, ne 01:00 UTC
Vėjas 5 kt iš Pietų
Temperatūra 25°C
Drėgmė 79%
Slėgis 1008 hPa
Matomumas 10 km arba daugiau
nėra debesų žemiau 1500 m ir nėra kamuolinių lietaus debesų

METAR: VTSC 260100Z 19005KT CAVOK 25/21 Q1008 NOSIG

Laikas: 08:30 (01:30 UTC)

Prognozė

Ataskaita buvo paskelbta 2 valandos ir 30 minutes, ne 23:00 UTC
Prognozė galioja nuo 26 metu 00 UTC su 26 metu 24 UTC
Vėjas 3 kt iš Pietų/Pietvakarių
Matomumas 10 km arba daugiau
Mažai debesys ne aukštis 2000 ft
Tapsmas
nuo 26 metu 04 UTC su 26 metu 06 UTC
Vėjas 10 kt iš Šiaurės
Tapsmas
nuo 26 metu 13 UTC su 26 metu 15 UTC
Vėjas 3 kt iš Pietų/Pietvakarių

TAF: VTSC 252300Z 2600/2624 20003KT 9999 FEW020 BECMG 2604/2606 01010KT BECMG 2613/2615 20003KT

Orai ataskaitas ir orų prognozės (METAR, TAF).

turimą stotys yra geltonos ir raudonos taškus žemėlapyje.

Perkelti pele per norėdami pamatyti stoties vardą.

Tada spustelėkite, norėdami matyti oro stebėjimo ir prognozės.

Norėdami pakeisti žemėlapį: spustelėkite ant žalios mygtukų su juodo kryžiaus žemyn,; žalią mygtuką su brūkšneliu, jei norite nutolinti; arba žalių rodyklių gretimoms žemėlapius.


METAR-TAF: